Davison Army Air Field
KDAA : now visible

Airfield :











YOU CAN JOIN US ON...

 
LOGIN :

Register | Disclaimer

   EN    FR    IT 

 









Legend :    VFR   Marginal VFR   IFR   Intensive IFR   Very Intensive IFR
Visi :
Ceiling :
>= 8 km
>= 3000ft
5 to 8 km
1000 to 3000 ft
1500m to 5 km
500 to 1000 ft
800 to 1500m
200 to 500 ft
< 800m
< 200 ft
Symbols :   Thunderstorms  Fog  Heavy snow  Heavy precipitations  Wind > 20 kt







- Airport Elevation : 73 ft


KDAA - Davison Army Air Field

CURRENT METAR :
  • 221056Z AUTO 31010KT 10SM OVC085 13/06 A3012 RMK AO2 SLP203 T01250056

EXPIRED METARs :
  • 220956Z AUTO 31008KT 10SM BKN085 13/06 A3011 RMK AO2 SLP199 T01250056
  • 220856Z AUTO 32010KT 10SM CLR 13/05 A3008 RMK AO2 SLP189 T01270054 55003

TAF AMD TAF KDAA
Valid from the 22 at 10:00 until the 23 at 15:00 UTC


221043Z 2210/2315 32009KT 9999 SCT020 BKN025 QNH3006INS
BECMG 2214/2215 31010G15KT 9999 SCT040 BKN080 QNH3006INS
BECMG 2222/2223 VRB06KT 9999 FEW110 QNH3006INS
BECMG 2308/2309 VRB06KT 9999 FEW025 SCT100 QNH3004INS TX21/2221Z TN13/2210Z
KZDC FIR / North America



MET'MAP, your aeronautical weather chart ! - Copyright ORBIFLY December 2007 - Disclaimer

ORBIFLY MET'MAP TEAM :

Programming & Development : Alexandra Zaïnal
Concept & Development : Baudouin d'Aumeries
Co-Development & Prog : Marc-Olivier Méhu
Technical & hardware support : Manuel Goepfert

Contact : metmap@orbifly.com




SOURCES & CREDITS :

   NOAA       Earth
Advisory